sensor_id;sensor_type;location;lat;lon;timestamp;P1;durP1;ratioP1;P2;durP2;ratioP2
18265;SDS011;9259;48.194;16.322;2023-02-04T00:00:27;7.70;;;1.13;;
18265;SDS011;9259;48.194;16.322;2023-02-04T00:02:55;5.90;;;1.27;;
18265;SDS011;9259;48.194;16.322;2023-02-04T00:05:23;7.57;;;1.47;;
18265;SDS011;9259;48.194;16.322;2023-02-04T00:07:51;6.77;;;1.60;;
18265;SDS011;9259;48.194;16.322;2023-02-04T00:10:19;10.53;;;1.20;;
18265;SDS011;9259;48.194;16.322;2023-02-04T00:12:47;8.70;;;1.30;;
18265;SDS011;9259;48.194;16.322;2023-02-04T00:15:15;6.93;;;1.17;;
18265;SDS011;9259;48.194;16.322;2023-02-04T00:17:45;5.63;;;1.23;;
18265;SDS011;9259;48.194;16.322;2023-02-04T00:20:13;7.80;;;1.57;;
18265;SDS011;9259;48.194;16.322;2023-02-04T00:22:53;5.90;;;1.40;;
18265;SDS011;9259;48.194;16.322;2023-02-04T00:25:21;6.63;;;1.20;;
18265;SDS011;9259;48.194;16.322;2023-02-04T00:27:49;4.83;;;1.47;;
18265;SDS011;9259;48.194;16.322;2023-02-04T00:30:18;6.73;;;1.43;;
18265;SDS011;9259;48.194;16.322;2023-02-04T00:32:47;10.27;;;1.17;;
18265;SDS011;9259;48.194;16.322;2023-02-04T00:35:19;5.67;;;1.30;;
18265;SDS011;9259;48.194;16.322;2023-02-04T00:37:47;9.53;;;1.40;;
18265;SDS011;9259;48.194;16.322;2023-02-04T00:40:15;9.20;;;1.60;;
18265;SDS011;9259;48.194;16.322;2023-02-04T00:42:44;11.63;;;1.40;;
18265;SDS011;9259;48.194;16.322;2023-02-04T00:45:12;10.87;;;1.60;;
18265;SDS011;9259;48.194;16.322;2023-02-04T00:47:40;9.13;;;1.77;;
18265;SDS011;9259;48.194;16.322;2023-02-04T00:50:09;7.70;;;1.57;;
18265;SDS011;9259;48.194;16.322;2023-02-04T00:52:38;4.80;;;1.07;;
18265;SDS011;9259;48.194;16.322;2023-02-04T00:55:06;8.17;;;1.10;;
18265;SDS011;9259;48.194;16.322;2023-02-04T00:57:35;9.40;;;1.33;;
18265;SDS011;9259;48.194;16.322;2023-02-04T01:00:03;9.67;;;1.13;;
18265;SDS011;9259;48.194;16.322;2023-02-04T01:02:32;5.13;;;1.27;;
18265;SDS011;9259;48.194;16.322;2023-02-04T01:05:00;8.10;;;1.13;;
18265;SDS011;9259;48.194;16.322;2023-02-04T01:07:29;8.60;;;1.50;;
18265;SDS011;9259;48.194;16.322;2023-02-04T01:09:57;5.53;;;1.13;;
18265;SDS011;9259;48.194;16.322;2023-02-04T01:12:26;5.27;;;0.93;;
18265;SDS011;9259;48.194;16.322;2023-02-04T01:14:54;9.70;;;1.23;;
18265;SDS011;9259;48.194;16.322;2023-02-04T01:17:22;4.40;;;0.97;;
18265;SDS011;9259;48.194;16.322;2023-02-04T01:19:50;7.67;;;1.03;;
18265;SDS011;9259;48.194;16.322;2023-02-04T01:22:18;6.00;;;0.73;;
18265;SDS011;9259;48.194;16.322;2023-02-04T01:24:48;6.73;;;1.30;;
18265;SDS011;9259;48.194;16.322;2023-02-04T01:27:16;5.43;;;0.83;;
18265;SDS011;9259;48.194;16.322;2023-02-04T01:29:44;8.90;;;1.10;;
18265;SDS011;9259;48.194;16.322;2023-02-04T01:32:12;6.10;;;0.87;;
18265;SDS011;9259;48.194;16.322;2023-02-04T01:34:40;3.37;;;1.10;;
18265;SDS011;9259;48.194;16.322;2023-02-04T01:37:08;10.33;;;1.43;;
18265;SDS011;9259;48.194;16.322;2023-02-04T01:39:36;6.90;;;1.00;;
18265;SDS011;9259;48.194;16.322;2023-02-04T01:42:06;5.80;;;1.00;;
18265;SDS011;9259;48.194;16.322;2023-02-04T01:44:34;8.40;;;1.00;;
18265;SDS011;9259;48.194;16.322;2023-02-04T01:47:04;4.73;;;0.90;;
18265;SDS011;9259;48.194;16.322;2023-02-04T01:49:32;8.33;;;1.10;;
18265;SDS011;9259;48.194;16.322;2023-02-04T01:52:00;6.50;;;1.30;;
18265;SDS011;9259;48.194;16.322;2023-02-04T01:54:29;6.63;;;1.10;;
18265;SDS011;9259;48.194;16.322;2023-02-04T01:56:57;6.33;;;1.07;;
18265;SDS011;9259;48.194;16.322;2023-02-04T01:59:27;5.37;;;0.90;;
18265;SDS011;9259;48.194;16.322;2023-02-04T02:01:55;6.57;;;1.20;;
18265;SDS011;9259;48.194;16.322;2023-02-04T02:04:25;7.63;;;1.13;;
18265;SDS011;9259;48.194;16.322;2023-02-04T02:06:56;9.47;;;1.20;;
18265;SDS011;9259;48.194;16.322;2023-02-04T02:09:26;11.57;;;1.50;;
18265;SDS011;9259;48.194;16.322;2023-02-04T02:11:54;9.67;;;1.53;;
18265;SDS011;9259;48.194;16.322;2023-02-04T02:14:22;9.47;;;1.00;;
18265;SDS011;9259;48.194;16.322;2023-02-04T02:16:52;5.97;;;1.17;;
18265;SDS011;9259;48.194;16.322;2023-02-04T02:19:23;8.03;;;1.10;;
18265;SDS011;9259;48.194;16.322;2023-02-04T02:21:56;4.53;;;1.53;;
18265;SDS011;9259;48.194;16.322;2023-02-04T02:24:30;5.97;;;1.33;;
18265;SDS011;9259;48.194;16.322;2023-02-04T02:27:00;8.33;;;1.43;;
18265;SDS011;9259;48.194;16.322;2023-02-04T02:29:29;7.37;;;1.10;;
18265;SDS011;9259;48.194;16.322;2023-02-04T02:31:57;6.07;;;1.00;;
18265;SDS011;9259;48.194;16.322;2023-02-04T02:34:26;4.80;;;1.00;;
18265;SDS011;9259;48.194;16.322;2023-02-04T02:36:55;13.10;;;1.27;;
18265;SDS011;9259;48.194;16.322;2023-02-04T02:39:23;7.27;;;1.17;;
18265;SDS011;9259;48.194;16.322;2023-02-04T02:41:53;9.40;;;1.03;;
18265;SDS011;9259;48.194;16.322;2023-02-04T02:44:22;9.50;;;1.30;;
18265;SDS011;9259;48.194;16.322;2023-02-04T02:46:50;7.40;;;1.20;;
18265;SDS011;9259;48.194;16.322;2023-02-04T02:49:19;5.13;;;0.70;;
18265;SDS011;9259;48.194;16.322;2023-02-04T02:51:47;4.63;;;0.83;;
18265;SDS011;9259;48.194;16.322;2023-02-04T02:54:18;4.10;;;0.90;;
18265;SDS011;9259;48.194;16.322;2023-02-04T02:56:48;3.07;;;1.00;;
18265;SDS011;9259;48.194;16.322;2023-02-04T02:59:18;3.97;;;0.70;;
18265;SDS011;9259;48.194;16.322;2023-02-04T03:01:48;7.83;;;1.20;;
18265;SDS011;9259;48.194;16.322;2023-02-04T03:04:19;4.97;;;1.07;;
18265;SDS011;9259;48.194;16.322;2023-02-04T03:06:48;3.97;;;0.97;;
18265;SDS011;9259;48.194;16.322;2023-02-04T03:09:16;6.53;;;1.10;;
18265;SDS011;9259;48.194;16.322;2023-02-04T03:11:44;4.07;;;0.97;;
18265;SDS011;9259;48.194;16.322;2023-02-04T03:14:13;6.20;;;1.10;;
18265;SDS011;9259;48.194;16.322;2023-02-04T03:16:43;5.07;;;0.77;;
18265;SDS011;9259;48.194;16.322;2023-02-04T03:19:11;4.57;;;1.13;;
18265;SDS011;9259;48.194;16.322;2023-02-04T03:21:39;4.60;;;0.80;;
18265;SDS011;9259;48.194;16.322;2023-02-04T03:24:08;5.60;;;0.73;;
18265;SDS011;9259;48.194;16.322;2023-02-04T03:26:36;1.73;;;0.60;;
18265;SDS011;9259;48.194;16.322;2023-02-04T03:29:05;3.47;;;0.70;;
18265;SDS011;9259;48.194;16.322;2023-02-04T03:31:33;3.90;;;0.60;;
18265;SDS011;9259;48.194;16.322;2023-02-04T03:34:03;3.43;;;0.60;;
18265;SDS011;9259;48.194;16.322;2023-02-04T03:36:32;4.07;;;0.80;;
18265;SDS011;9259;48.194;16.322;2023-02-04T03:39:01;6.70;;;0.67;;
18265;SDS011;9259;48.194;16.322;2023-02-04T03:41:29;3.60;;;0.70;;
18265;SDS011;9259;48.194;16.322;2023-02-04T03:43:57;2.10;;;0.53;;
18265;SDS011;9259;48.194;16.322;2023-02-04T03:46:25;4.20;;;0.67;;
18265;SDS011;9259;48.194;16.322;2023-02-04T03:48:54;10.67;;;1.27;;
18265;SDS011;9259;48.194;16.322;2023-02-04T03:51:23;2.07;;;0.40;;
18265;SDS011;9259;48.194;16.322;2023-02-04T03:53:51;2.53;;;0.90;;
18265;SDS011;9259;48.194;16.322;2023-02-04T03:56:19;6.50;;;0.67;;
18265;SDS011;9259;48.194;16.322;2023-02-04T03:58:47;0.90;;;0.40;;
18265;SDS011;9259;48.194;16.322;2023-02-04T04:01:15;5.30;;;1.07;;
18265;SDS011;9259;48.194;16.322;2023-02-04T04:03:43;2.03;;;0.40;;
18265;SDS011;9259;48.194;16.322;2023-02-04T04:06:12;3.63;;;0.70;;
18265;SDS011;9259;48.194;16.322;2023-02-04T04:08:41;2.77;;;0.83;;
18265;SDS011;9259;48.194;16.322;2023-02-04T04:11:09;5.60;;;0.67;;
18265;SDS011;9259;48.194;16.322;2023-02-04T04:13:37;3.13;;;0.50;;
18265;SDS011;9259;48.194;16.322;2023-02-04T04:16:06;2.13;;;0.73;;
18265;SDS011;9259;48.194;16.322;2023-02-04T04:18:34;1.40;;;0.20;;
18265;SDS011;9259;48.194;16.322;2023-02-04T04:21:02;1.47;;;0.40;;
18265;SDS011;9259;48.194;16.322;2023-02-04T04:23:31;1.70;;;0.27;;
18265;SDS011;9259;48.194;16.322;2023-02-04T04:26:01;5.40;;;0.60;;
18265;SDS011;9259;48.194;16.322;2023-02-04T04:28:29;2.03;;;0.40;;
18265;SDS011;9259;48.194;16.322;2023-02-04T04:30:57;3.30;;;0.60;;
18265;SDS011;9259;48.194;16.322;2023-02-04T04:33:25;2.90;;;0.40;;
18265;SDS011;9259;48.194;16.322;2023-02-04T04:35:53;3.97;;;0.60;;
18265;SDS011;9259;48.194;16.322;2023-02-04T04:38:21;2.43;;;0.40;;
18265;SDS011;9259;48.194;16.322;2023-02-04T04:40:49;4.03;;;0.50;;
18265;SDS011;9259;48.194;16.322;2023-02-04T04:43:19;2.57;;;0.60;;
18265;SDS011;9259;48.194;16.322;2023-02-04T04:45:47;2.10;;;0.50;;
18265;SDS011;9259;48.194;16.322;2023-02-04T04:48:15;0.40;;;0.27;;
18265;SDS011;9259;48.194;16.322;2023-02-04T04:50:43;1.00;;;0.40;;
18265;SDS011;9259;48.194;16.322;2023-02-04T04:53:11;4.07;;;0.50;;
18265;SDS011;9259;48.194;16.322;2023-02-04T04:55:39;1.80;;;0.40;;
18265;SDS011;9259;48.194;16.322;2023-02-04T04:58:07;1.10;;;0.20;;
18265;SDS011;9259;48.194;16.322;2023-02-04T05:00:37;1.10;;;0.30;;
18265;SDS011;9259;48.194;16.322;2023-02-04T05:03:06;1.47;;;0.30;;
18265;SDS011;9259;48.194;16.322;2023-02-04T05:05:35;0.30;;;0.20;;
18265;SDS011;9259;48.194;16.322;2023-02-04T05:08:05;1.90;;;0.30;;
18265;SDS011;9259;48.194;16.322;2023-02-04T05:10:35;1.37;;;0.20;;
18265;SDS011;9259;48.194;16.322;2023-02-04T05:13:03;2.47;;;0.20;;
18265;SDS011;9259;48.194;16.322;2023-02-04T05:15:31;0.90;;;0.40;;
18265;SDS011;9259;48.194;16.322;2023-02-04T05:18:01;0.83;;;0.40;;
18265;SDS011;9259;48.194;16.322;2023-02-04T05:20:29;4.23;;;0.50;;
18265;SDS011;9259;48.194;16.322;2023-02-04T05:22:57;0.80;;;0.50;;
18265;SDS011;9259;48.194;16.322;2023-02-04T05:25:26;1.00;;;0.50;;
18265;SDS011;9259;48.194;16.322;2023-02-04T05:27:54;0.63;;;0.47;;
18265;SDS011;9259;48.194;16.322;2023-02-04T05:30:22;0.63;;;0.40;;
18265;SDS011;9259;48.194;16.322;2023-02-04T05:32:50;0.57;;;0.40;;
18265;SDS011;9259;48.194;16.322;2023-02-04T05:35:20;1.23;;;0.40;;
18265;SDS011;9259;48.194;16.322;2023-02-04T05:37:48;1.73;;;0.70;;
18265;SDS011;9259;48.194;16.322;2023-02-04T05:40:16;1.03;;;0.60;;
18265;SDS011;9259;48.194;16.322;2023-02-04T05:42:44;2.27;;;0.80;;
18265;SDS011;9259;48.194;16.322;2023-02-04T05:45:13;1.70;;;0.60;;
18265;SDS011;9259;48.194;16.322;2023-02-04T05:47:43;4.70;;;0.80;;
18265;SDS011;9259;48.194;16.322;2023-02-04T05:50:11;1.50;;;0.77;;
18265;SDS011;9259;48.194;16.322;2023-02-04T05:52:41;1.27;;;0.70;;
18265;SDS011;9259;48.194;16.322;2023-02-04T05:55:09;1.40;;;0.80;;
18265;SDS011;9259;48.194;16.322;2023-02-04T05:57:38;3.77;;;0.87;;
18265;SDS011;9259;48.194;16.322;2023-02-04T06:00:07;1.60;;;0.73;;
18265;SDS011;9259;48.194;16.322;2023-02-04T06:02:37;1.30;;;0.80;;
18265;SDS011;9259;48.194;16.322;2023-02-04T06:05:05;1.80;;;0.90;;
18265;SDS011;9259;48.194;16.322;2023-02-04T06:07:33;1.50;;;0.80;;
18265;SDS011;9259;48.194;16.322;2023-02-04T06:10:03;3.07;;;0.80;;
18265;SDS011;9259;48.194;16.322;2023-02-04T06:12:31;2.33;;;1.07;;
18265;SDS011;9259;48.194;16.322;2023-02-04T06:14:59;1.23;;;0.80;;
18265;SDS011;9259;48.194;16.322;2023-02-04T06:17:27;1.63;;;0.90;;
18265;SDS011;9259;48.194;16.322;2023-02-04T06:19:55;2.07;;;1.10;;
18265;SDS011;9259;48.194;16.322;2023-02-04T06:22:24;2.17;;;1.10;;
18265;SDS011;9259;48.194;16.322;2023-02-04T06:24:52;3.47;;;1.10;;
18265;SDS011;9259;48.194;16.322;2023-02-04T06:27:22;6.30;;;1.17;;
18265;SDS011;9259;48.194;16.322;2023-02-04T06:29:50;1.97;;;1.00;;
18265;SDS011;9259;48.194;16.322;2023-02-04T06:32:18;2.77;;;1.53;;
18265;SDS011;9259;48.194;16.322;2023-02-04T06:34:47;2.57;;;1.47;;
18265;SDS011;9259;48.194;16.322;2023-02-04T06:37:15;1.73;;;1.10;;
18265;SDS011;9259;48.194;16.322;2023-02-04T06:39:43;2.87;;;1.20;;
18265;SDS011;9259;48.194;16.322;2023-02-04T06:42:11;2.03;;;1.47;;
18265;SDS011;9259;48.194;16.322;2023-02-04T06:44:41;3.27;;;1.60;;
18265;SDS011;9259;48.194;16.322;2023-02-04T06:47:09;3.40;;;1.57;;
18265;SDS011;9259;48.194;16.322;2023-02-04T06:49:37;2.47;;;1.40;;
18265;SDS011;9259;48.194;16.322;2023-02-04T06:52:05;4.23;;;1.70;;
18265;SDS011;9259;48.194;16.322;2023-02-04T06:54:33;4.07;;;1.53;;
18265;SDS011;9259;48.194;16.322;2023-02-04T06:57:01;3.23;;;1.40;;
18265;SDS011;9259;48.194;16.322;2023-02-04T06:59:32;3.10;;;1.40;;
18265;SDS011;9259;48.194;16.322;2023-02-04T07:02:02;2.67;;;1.53;;
18265;SDS011;9259;48.194;16.322;2023-02-04T07:04:32;4.17;;;1.23;;
18265;SDS011;9259;48.194;16.322;2023-02-04T07:07:00;3.63;;;1.83;;
18265;SDS011;9259;48.194;16.322;2023-02-04T07:09:28;2.77;;;1.33;;
18265;SDS011;9259;48.194;16.322;2023-02-04T07:11:56;4.17;;;1.90;;
18265;SDS011;9259;48.194;16.322;2023-02-04T07:14:24;4.83;;;1.80;;
18265;SDS011;9259;48.194;16.322;2023-02-04T07:16:52;4.60;;;1.90;;
18265;SDS011;9259;48.194;16.322;2023-02-04T07:19:24;2.00;;;1.40;;
18265;SDS011;9259;48.194;16.322;2023-02-04T07:21:52;2.30;;;1.50;;
18265;SDS011;9259;48.194;16.322;2023-02-04T07:24:21;2.63;;;1.63;;
18265;SDS011;9259;48.194;16.322;2023-02-04T07:26:49;2.53;;;1.40;;
18265;SDS011;9259;48.194;16.322;2023-02-04T07:29:18;2.83;;;1.60;;
18265;SDS011;9259;48.194;16.322;2023-02-04T07:31:46;2.93;;;1.37;;
18265;SDS011;9259;48.194;16.322;2023-02-04T07:34:16;2.37;;;1.27;;
18265;SDS011;9259;48.194;16.322;2023-02-04T07:36:45;2.37;;;1.23;;
18265;SDS011;9259;48.194;16.322;2023-02-04T07:39:14;3.03;;;0.90;;
18265;SDS011;9259;48.194;16.322;2023-02-04T07:41:42;2.20;;;1.10;;
18265;SDS011;9259;48.194;16.322;2023-02-04T07:44:10;3.27;;;1.07;;
18265;SDS011;9259;48.194;16.322;2023-02-04T07:46:38;0.80;;;0.60;;
18265;SDS011;9259;48.194;16.322;2023-02-04T07:49:06;2.93;;;1.10;;
18265;SDS011;9259;48.194;16.322;2023-02-04T07:51:34;2.23;;;0.90;;
18265;SDS011;9259;48.194;16.322;2023-02-04T07:54:03;1.70;;;0.90;;
18265;SDS011;9259;48.194;16.322;2023-02-04T07:56:32;2.87;;;1.17;;
18265;SDS011;9259;48.194;16.322;2023-02-04T07:59:00;2.53;;;1.60;;
18265;SDS011;9259;48.194;16.322;2023-02-04T08:01:28;4.37;;;1.70;;
18265;SDS011;9259;48.194;16.322;2023-02-04T08:03:56;1.53;;;1.17;;
18265;SDS011;9259;48.194;16.322;2023-02-04T08:06:24;3.07;;;1.47;;
18265;SDS011;9259;48.194;16.322;2023-02-04T08:08:52;3.77;;;1.37;;
18265;SDS011;9259;48.194;16.322;2023-02-04T08:11:22;2.67;;;1.53;;
18265;SDS011;9259;48.194;16.322;2023-02-04T08:13:51;2.13;;;1.00;;
18265;SDS011;9259;48.194;16.322;2023-02-04T08:16:19;4.13;;;1.53;;
18265;SDS011;9259;48.194;16.322;2023-02-04T08:18:47;3.40;;;1.50;;
18265;SDS011;9259;48.194;16.322;2023-02-04T08:21:16;3.73;;;1.30;;
18265;SDS011;9259;48.194;16.322;2023-02-04T08:23:44;2.80;;;0.77;;
18265;SDS011;9259;48.194;16.322;2023-02-04T08:26:12;2.27;;;0.90;;
18265;SDS011;9259;48.194;16.322;2023-02-04T08:28:42;2.43;;;1.33;;
18265;SDS011;9259;48.194;16.322;2023-02-04T08:31:10;3.00;;;0.90;;
18265;SDS011;9259;48.194;16.322;2023-02-04T08:33:38;1.93;;;0.80;;
18265;SDS011;9259;48.194;16.322;2023-02-04T08:36:06;2.17;;;0.90;;
18265;SDS011;9259;48.194;16.322;2023-02-04T08:38:35;2.10;;;0.90;;
18265;SDS011;9259;48.194;16.322;2023-02-04T08:41:03;1.53;;;0.60;;
18265;SDS011;9259;48.194;16.322;2023-02-04T08:43:31;2.20;;;0.80;;
18265;SDS011;9259;48.194;16.322;2023-02-04T08:46:01;3.27;;;0.90;;
18265;SDS011;9259;48.194;16.322;2023-02-04T08:48:29;2.20;;;0.90;;
18265;SDS011;9259;48.194;16.322;2023-02-04T08:50:57;1.73;;;0.80;;
18265;SDS011;9259;48.194;16.322;2023-02-04T08:53:25;2.80;;;1.10;;
18265;SDS011;9259;48.194;16.322;2023-02-04T08:55:53;1.80;;;0.80;;
18265;SDS011;9259;48.194;16.322;2023-02-04T08:58:21;2.53;;;0.77;;
18265;SDS011;9259;48.194;16.322;2023-02-04T09:00:49;1.60;;;0.67;;
18265;SDS011;9259;48.194;16.322;2023-02-04T09:03:19;1.63;;;0.60;;
18265;SDS011;9259;48.194;16.322;2023-02-04T09:05:47;3.00;;;0.90;;
18265;SDS011;9259;48.194;16.322;2023-02-04T09:08:15;3.47;;;0.80;;
18265;SDS011;9259;48.194;16.322;2023-02-04T09:10:43;2.97;;;0.90;;
18265;SDS011;9259;48.194;16.322;2023-02-04T09:13:11;2.20;;;1.00;;
18265;SDS011;9259;48.194;16.322;2023-02-04T09:15:39;2.00;;;0.80;;
18265;SDS011;9259;48.194;16.322;2023-02-04T09:18:08;1.73;;;0.70;;
18265;SDS011;9259;48.194;16.322;2023-02-04T09:20:42;3.13;;;1.07;;
18265;SDS011;9259;48.194;16.322;2023-02-04T09:23:10;2.30;;;0.90;;
18265;SDS011;9259;48.194;16.322;2023-02-04T09:25:39;1.13;;;0.80;;
18265;SDS011;9259;48.194;16.322;2023-02-04T09:28:08;1.30;;;0.70;;
18265;SDS011;9259;48.194;16.322;2023-02-04T09:30:37;1.93;;;0.87;;
18265;SDS011;9259;48.194;16.322;2023-02-04T09:33:06;5.27;;;1.20;;
18265;SDS011;9259;48.194;16.322;2023-02-04T09:35:34;2.73;;;1.10;;
18265;SDS011;9259;48.194;16.322;2023-02-04T09:38:04;2.43;;;0.90;;
18265;SDS011;9259;48.194;16.322;2023-02-04T09:40:33;2.80;;;1.20;;
18265;SDS011;9259;48.194;16.322;2023-02-04T09:43:03;2.77;;;1.00;;
18265;SDS011;9259;48.194;16.322;2023-02-04T09:45:32;3.07;;;1.00;;
18265;SDS011;9259;48.194;16.322;2023-02-04T09:48:01;1.77;;;0.90;;
18265;SDS011;9259;48.194;16.322;2023-02-04T09:50:30;1.33;;;0.77;;
18265;SDS011;9259;48.194;16.322;2023-02-04T09:52:59;2.63;;;1.07;;
18265;SDS011;9259;48.194;16.322;2023-02-04T09:55:30;3.43;;;1.10;;
18265;SDS011;9259;48.194;16.322;2023-02-04T09:57:59;2.27;;;1.00;;
18265;SDS011;9259;48.194;16.322;2023-02-04T10:00:29;3.57;;;1.10;;
18265;SDS011;9259;48.194;16.322;2023-02-04T10:02:57;1.17;;;0.60;;
18265;SDS011;9259;48.194;16.322;2023-02-04T10:05:28;4.97;;;0.80;;
18265;SDS011;9259;48.194;16.322;2023-02-04T10:07:56;1.83;;;0.87;;
18265;SDS011;9259;48.194;16.322;2023-02-04T10:10:25;1.57;;;0.80;;
18265;SDS011;9259;48.194;16.322;2023-02-04T10:12:57;2.83;;;0.97;;
18265;SDS011;9259;48.194;16.322;2023-02-04T10:15:26;1.87;;;0.80;;
18265;SDS011;9259;48.194;16.322;2023-02-04T10:17:57;1.87;;;1.00;;
18265;SDS011;9259;48.194;16.322;2023-02-04T10:20:27;2.87;;;1.23;;
18265;SDS011;9259;48.194;16.322;2023-02-04T10:22:55;1.67;;;0.80;;
18265;SDS011;9259;48.194;16.322;2023-02-04T10:25:24;4.27;;;1.37;;
18265;SDS011;9259;48.194;16.322;2023-02-04T10:27:52;2.63;;;1.00;;
18265;SDS011;9259;48.194;16.322;2023-02-04T10:30:24;2.63;;;0.90;;
18265;SDS011;9259;48.194;16.322;2023-02-04T10:32:53;3.10;;;1.43;;
18265;SDS011;9259;48.194;16.322;2023-02-04T10:35:21;3.33;;;1.40;;
18265;SDS011;9259;48.194;16.322;2023-02-04T10:38:01;3.03;;;1.27;;
18265;SDS011;9259;48.194;16.322;2023-02-04T10:40:31;1.97;;;1.10;;
18265;SDS011;9259;48.194;16.322;2023-02-04T10:43:06;2.10;;;1.30;;
18265;SDS011;9259;48.194;16.322;2023-02-04T10:45:37;2.57;;;1.00;;
18265;SDS011;9259;48.194;16.322;2023-02-04T10:48:05;1.53;;;0.87;;
18265;SDS011;9259;48.194;16.322;2023-02-04T10:50:40;5.63;;;1.40;;
18265;SDS011;9259;48.194;16.322;2023-02-04T10:53:08;3.73;;;1.07;;
18265;SDS011;9259;48.194;16.322;2023-02-04T10:55:55;1.57;;;1.00;;
18265;SDS011;9259;48.194;16.322;2023-02-04T10:58:25;3.40;;;0.93;;
18265;SDS011;9259;48.194;16.322;2023-02-04T11:00:56;2.13;;;1.00;;
18265;SDS011;9259;48.194;16.322;2023-02-04T11:03:25;2.70;;;1.00;;
18265;SDS011;9259;48.194;16.322;2023-02-04T11:05:55;2.30;;;0.90;;
18265;SDS011;9259;48.194;16.322;2023-02-04T11:08:25;2.23;;;1.00;;
18265;SDS011;9259;48.194;16.322;2023-02-04T11:10:57;2.20;;;1.20;;
18265;SDS011;9259;48.194;16.322;2023-02-04T11:13:27;3.23;;;1.17;;
18265;SDS011;9259;48.194;16.322;2023-02-04T11:16:09;3.03;;;1.20;;
18265;SDS011;9259;48.194;16.322;2023-02-04T11:18:43;4.07;;;1.17;;
18265;SDS011;9259;48.194;16.322;2023-02-04T11:21:14;2.20;;;1.10;;
18265;SDS011;9259;48.194;16.322;2023-02-04T11:23:48;2.60;;;1.20;;
18265;SDS011;9259;48.194;16.322;2023-02-04T11:26:17;4.10;;;1.40;;
18265;SDS011;9259;48.194;16.322;2023-02-04T11:29:07;2.47;;;1.10;;
18265;SDS011;9259;48.194;16.322;2023-02-04T11:32:00;1.47;;;0.70;;
18265;SDS011;9259;48.194;16.322;2023-02-04T11:34:31;1.43;;;0.80;;
18265;SDS011;9259;48.194;16.322;2023-02-04T11:37:17;2.27;;;0.97;;
18265;SDS011;9259;48.194;16.322;2023-02-04T11:39:56;1.30;;;0.80;;
18265;SDS011;9259;48.194;16.322;2023-02-04T11:42:28;1.50;;;0.80;;
18265;SDS011;9259;48.194;16.322;2023-02-04T11:44:59;2.73;;;1.00;;
18265;SDS011;9259;48.194;16.322;2023-02-04T11:47:34;1.63;;;0.83;;
18265;SDS011;9259;48.194;16.322;2023-02-04T11:50:04;1.43;;;1.00;;
18265;SDS011;9259;48.194;16.322;2023-02-04T11:52:39;2.53;;;1.13;;
18265;SDS011;9259;48.194;16.322;2023-02-04T11:55:09;3.20;;;1.20;;
18265;SDS011;9259;48.194;16.322;2023-02-04T11:57:38;1.97;;;1.20;;
18265;SDS011;9259;48.194;16.322;2023-02-04T12:00:11;1.60;;;0.90;;
18265;SDS011;9259;48.194;16.322;2023-02-04T12:02:43;2.37;;;1.23;;
18265;SDS011;9259;48.194;16.322;2023-02-04T12:05:13;2.87;;;1.10;;
18265;SDS011;9259;48.194;16.322;2023-02-04T12:07:42;8.20;;;1.00;;
18265;SDS011;9259;48.194;16.322;2023-02-04T12:10:22;3.60;;;1.10;;
18265;SDS011;9259;48.194;16.322;2023-02-04T12:12:51;1.80;;;0.93;;
18265;SDS011;9259;48.194;16.322;2023-02-04T12:15:23;3.27;;;0.83;;
18265;SDS011;9259;48.194;16.322;2023-02-04T12:18:02;1.30;;;0.70;;
18265;SDS011;9259;48.194;16.322;2023-02-04T12:20:33;2.63;;;1.03;;
18265;SDS011;9259;48.194;16.322;2023-02-04T12:23:01;4.43;;;1.00;;
18265;SDS011;9259;48.194;16.322;2023-02-04T12:25:29;2.53;;;1.10;;
18265;SDS011;9259;48.194;16.322;2023-02-04T12:27:57;2.30;;;0.87;;
18265;SDS011;9259;48.194;16.322;2023-02-04T12:30:25;2.60;;;0.90;;
18265;SDS011;9259;48.194;16.322;2023-02-04T12:32:53;4.37;;;1.20;;
18265;SDS011;9259;48.194;16.322;2023-02-04T12:35:23;3.17;;;1.40;;
18265;SDS011;9259;48.194;16.322;2023-02-04T12:37:51;2.80;;;1.10;;
18265;SDS011;9259;48.194;16.322;2023-02-04T12:40:20;3.57;;;1.10;;
18265;SDS011;9259;48.194;16.322;2023-02-04T12:42:48;1.90;;;1.10;;
18265;SDS011;9259;48.194;16.322;2023-02-04T12:45:16;2.80;;;1.10;;
18265;SDS011;9259;48.194;16.322;2023-02-04T12:47:45;2.70;;;0.80;;
18265;SDS011;9259;48.194;16.322;2023-02-04T12:50:13;1.40;;;0.80;;
18265;SDS011;9259;48.194;16.322;2023-02-04T12:52:49;2.50;;;0.90;;
18265;SDS011;9259;48.194;16.322;2023-02-04T12:55:18;3.57;;;0.90;;
18265;SDS011;9259;48.194;16.322;2023-02-04T12:57:46;1.00;;;0.70;;
18265;SDS011;9259;48.194;16.322;2023-02-04T13:00:15;2.17;;;1.07;;
18265;SDS011;9259;48.194;16.322;2023-02-04T13:02:43;4.13;;;1.13;;
18265;SDS011;9259;48.194;16.322;2023-02-04T13:05:12;2.60;;;0.80;;
18265;SDS011;9259;48.194;16.322;2023-02-04T13:07:40;6.73;;;1.20;;
18265;SDS011;9259;48.194;16.322;2023-02-04T13:10:10;2.43;;;1.20;;
18265;SDS011;9259;48.194;16.322;2023-02-04T13:12:39;6.73;;;1.30;;
18265;SDS011;9259;48.194;16.322;2023-02-04T13:15:08;4.70;;;1.50;;
18265;SDS011;9259;48.194;16.322;2023-02-04T13:17:36;4.03;;;1.43;;
18265;SDS011;9259;48.194;16.322;2023-02-04T13:20:05;2.63;;;0.97;;
18265;SDS011;9259;48.194;16.322;2023-02-04T13:22:34;3.47;;;1.30;;
18265;SDS011;9259;48.194;16.322;2023-02-04T13:25:03;3.03;;;1.33;;
18265;SDS011;9259;48.194;16.322;2023-02-04T13:27:33;4.57;;;0.90;;
18265;SDS011;9259;48.194;16.322;2023-02-04T13:30:01;4.73;;;1.60;;
18265;SDS011;9259;48.194;16.322;2023-02-04T13:32:30;3.73;;;1.10;;
18265;SDS011;9259;48.194;16.322;2023-02-04T13:34:58;2.27;;;0.93;;
18265;SDS011;9259;48.194;16.322;2023-02-04T13:37:26;2.70;;;1.00;;
18265;SDS011;9259;48.194;16.322;2023-02-04T13:39:54;2.33;;;0.97;;
18265;SDS011;9259;48.194;16.322;2023-02-04T13:42:22;1.30;;;0.77;;
18265;SDS011;9259;48.194;16.322;2023-02-04T13:44:52;3.13;;;1.10;;
18265;SDS011;9259;48.194;16.322;2023-02-04T13:47:20;3.00;;;1.00;;
18265;SDS011;9259;48.194;16.322;2023-02-04T13:49:48;4.70;;;1.37;;
18265;SDS011;9259;48.194;16.322;2023-02-04T13:52:16;2.63;;;1.10;;
18265;SDS011;9259;48.194;16.322;2023-02-04T13:54:44;2.10;;;0.93;;
18265;SDS011;9259;48.194;16.322;2023-02-04T13:57:12;2.97;;;1.17;;
18265;SDS011;9259;48.194;16.322;2023-02-04T13:59:42;4.03;;;1.30;;
18265;SDS011;9259;48.194;16.322;2023-02-04T14:02:11;3.57;;;1.33;;
18265;SDS011;9259;48.194;16.322;2023-02-04T14:04:39;2.53;;;1.03;;
18265;SDS011;9259;48.194;16.322;2023-02-04T14:07:08;3.27;;;0.90;;
18265;SDS011;9259;48.194;16.322;2023-02-04T14:09:36;3.63;;;0.80;;
18265;SDS011;9259;48.194;16.322;2023-02-04T14:12:05;3.43;;;1.07;;
18265;SDS011;9259;48.194;16.322;2023-02-04T14:14:39;3.37;;;0.93;;
18265;SDS011;9259;48.194;16.322;2023-02-04T14:17:07;2.47;;;0.83;;
18265;SDS011;9259;48.194;16.322;2023-02-04T14:19:36;1.97;;;1.00;;
18265;SDS011;9259;48.194;16.322;2023-02-04T14:22:04;2.07;;;1.00;;
18265;SDS011;9259;48.194;16.322;2023-02-04T14:24:35;2.80;;;0.90;;
18265;SDS011;9259;48.194;16.322;2023-02-04T14:27:06;2.43;;;1.13;;
18265;SDS011;9259;48.194;16.322;2023-02-04T14:29:34;2.67;;;1.10;;
18265;SDS011;9259;48.194;16.322;2023-02-04T14:32:03;2.03;;;1.07;;
18265;SDS011;9259;48.194;16.322;2023-02-04T14:34:31;4.67;;;2.30;;
18265;SDS011;9259;48.194;16.322;2023-02-04T14:37:01;5.80;;;1.57;;
18265;SDS011;9259;48.194;16.322;2023-02-04T14:39:29;2.10;;;1.00;;
18265;SDS011;9259;48.194;16.322;2023-02-04T14:41:57;1.87;;;1.03;;
18265;SDS011;9259;48.194;16.322;2023-02-04T14:44:29;8.70;;;1.40;;
18265;SDS011;9259;48.194;16.322;2023-02-04T14:46:57;3.67;;;1.10;;
18265;SDS011;9259;48.194;16.322;2023-02-04T14:49:25;2.57;;;0.90;;
18265;SDS011;9259;48.194;16.322;2023-02-04T14:51:53;2.30;;;1.00;;
18265;SDS011;9259;48.194;16.322;2023-02-04T14:54:24;3.07;;;1.17;;
18265;SDS011;9259;48.194;16.322;2023-02-04T14:56:52;3.00;;;1.27;;
18265;SDS011;9259;48.194;16.322;2023-02-04T14:59:23;3.67;;;1.23;;